sensor_id;sensor_type;location;lat;lon;timestamp;pressure;altitude;pressure_sealevel;temperature;humidity
60646;BME280;46462;32.608;-117.032;2022-07-10T00:01:36;99643.46;;;32.33;37.19
60646;BME280;46462;32.608;-117.032;2022-07-10T00:04:06;99642.60;;;32.34;37.15
60646;BME280;46462;32.608;-117.032;2022-07-10T00:06:36;99640.83;;;32.36;37.17
60646;BME280;46462;32.608;-117.032;2022-07-10T00:09:06;99639.62;;;32.35;37.18
60646;BME280;46462;32.608;-117.032;2022-07-10T00:11:36;99638.23;;;32.36;37.23
60646;BME280;46462;32.608;-117.032;2022-07-10T00:14:07;99633.46;;;32.36;37.16
60646;BME280;46462;32.608;-117.032;2022-07-10T00:16:37;99634.80;;;32.37;37.13
60646;BME280;46462;32.608;-117.032;2022-07-10T00:19:07;99636.68;;;32.38;37.16
60646;BME280;46462;32.608;-117.032;2022-07-10T00:21:37;99636.25;;;32.40;37.13
60646;BME280;46462;32.608;-117.032;2022-07-10T00:24:07;99631.82;;;32.40;37.20
60646;BME280;46462;32.608;-117.032;2022-07-10T00:26:37;99630.25;;;32.42;37.20
60646;BME280;46462;32.608;-117.032;2022-07-10T00:29:07;99628.54;;;32.42;37.17
60646;BME280;46462;32.608;-117.032;2022-07-10T00:31:37;99623.24;;;32.42;37.19
60646;BME280;46462;32.608;-117.032;2022-07-10T00:34:07;99621.53;;;32.43;37.22
60646;BME280;46462;32.608;-117.032;2022-07-10T00:36:37;99618.49;;;32.45;37.31
60646;BME280;46462;32.608;-117.032;2022-07-10T00:39:07;99620.78;;;32.45;37.30
60646;BME280;46462;32.608;-117.032;2022-07-10T00:41:38;99617.95;;;32.45;37.34
60646;BME280;46462;32.608;-117.032;2022-07-10T00:44:08;99615.81;;;32.45;37.43
60646;BME280;46462;32.608;-117.032;2022-07-10T00:46:38;99616.06;;;32.46;37.41
60646;BME280;46462;32.608;-117.032;2022-07-10T00:49:08;99613.07;;;32.45;37.51
60646;BME280;46462;32.608;-117.032;2022-07-10T00:51:38;99604.82;;;32.46;37.44
60646;BME280;46462;32.608;-117.032;2022-07-10T00:54:08;99604.20;;;32.47;37.51
60646;BME280;46462;32.608;-117.032;2022-07-10T00:56:38;99600.50;;;32.46;37.54
60646;BME280;46462;32.608;-117.032;2022-07-10T00:59:09;99597.35;;;32.48;37.50
60646;BME280;46462;32.608;-117.032;2022-07-10T01:01:39;99598.81;;;32.49;37.50
60646;BME280;46462;32.608;-117.032;2022-07-10T01:04:09;99596.16;;;32.49;37.55
60646;BME280;46462;32.608;-117.032;2022-07-10T01:06:38;99592.83;;;32.50;37.56
60646;BME280;46462;32.608;-117.032;2022-07-10T01:09:09;99596.58;;;32.50;37.55
60646;BME280;46462;32.608;-117.032;2022-07-10T01:11:39;99593.98;;;32.50;37.55
60646;BME280;46462;32.608;-117.032;2022-07-10T01:14:09;99596.79;;;32.51;37.56
60646;BME280;46462;32.608;-117.032;2022-07-10T01:16:39;99595.47;;;32.51;37.58
60646;BME280;46462;32.608;-117.032;2022-07-10T01:19:09;99595.34;;;32.51;37.62
60646;BME280;46462;32.608;-117.032;2022-07-10T01:21:39;99599.02;;;32.52;37.60
60646;BME280;46462;32.608;-117.032;2022-07-10T01:24:10;99598.80;;;32.52;37.62
60646;BME280;46462;32.608;-117.032;2022-07-10T01:26:39;99598.90;;;32.52;37.63
60646;BME280;46462;32.608;-117.032;2022-07-10T01:29:10;99601.68;;;32.51;37.70
60646;BME280;46462;32.608;-117.032;2022-07-10T01:31:39;99603.02;;;32.52;37.66
60646;BME280;46462;32.608;-117.032;2022-07-10T01:34:10;99605.82;;;32.50;37.66
60646;BME280;46462;32.608;-117.032;2022-07-10T01:36:40;99604.95;;;32.50;37.76
60646;BME280;46462;32.608;-117.032;2022-07-10T01:39:10;99608.21;;;32.49;37.81
60646;BME280;46462;32.608;-117.032;2022-07-10T01:41:40;99611.06;;;32.50;37.79
60646;BME280;46462;32.608;-117.032;2022-07-10T01:44:10;99612.48;;;32.49;37.77
60646;BME280;46462;32.608;-117.032;2022-07-10T01:46:44;99611.98;;;32.49;37.81
60646;BME280;46462;32.608;-117.032;2022-07-10T01:49:10;99612.32;;;32.49;37.89
60646;BME280;46462;32.608;-117.032;2022-07-10T01:51:40;99608.00;;;32.50;37.92
60646;BME280;46462;32.608;-117.032;2022-07-10T01:54:10;99604.14;;;32.49;37.95
60646;BME280;46462;32.608;-117.032;2022-07-10T01:56:40;99604.66;;;32.48;37.95
60646;BME280;46462;32.608;-117.032;2022-07-10T01:59:10;99607.75;;;32.47;37.96
60646;BME280;46462;32.608;-117.032;2022-07-10T02:01:41;99606.10;;;32.46;37.90
60646;BME280;46462;32.608;-117.032;2022-07-10T02:04:11;99603.84;;;32.46;37.81
60646;BME280;46462;32.608;-117.032;2022-07-10T02:06:41;99606.37;;;32.47;37.68
60646;BME280;46462;32.608;-117.032;2022-07-10T02:09:11;99612.33;;;32.47;37.66
60646;BME280;46462;32.608;-117.032;2022-07-10T02:11:41;99615.89;;;32.47;37.66
60646;BME280;46462;32.608;-117.032;2022-07-10T02:14:11;99613.79;;;32.47;37.62
60646;BME280;46462;32.608;-117.032;2022-07-10T02:16:41;99613.34;;;32.47;37.77
60646;BME280;46462;32.608;-117.032;2022-07-10T02:19:11;99614.43;;;32.46;37.94
60646;BME280;46462;32.608;-117.032;2022-07-10T02:21:41;99614.27;;;32.46;37.86
60646;BME280;46462;32.608;-117.032;2022-07-10T02:24:11;99617.15;;;32.45;37.94
60646;BME280;46462;32.608;-117.032;2022-07-10T02:26:41;99617.17;;;32.45;37.97
60646;BME280;46462;32.608;-117.032;2022-07-10T02:29:12;99617.36;;;32.43;38.00
60646;BME280;46462;32.608;-117.032;2022-07-10T02:31:42;99620.30;;;32.44;38.03
60646;BME280;46462;32.608;-117.032;2022-07-10T02:34:12;99623.81;;;32.43;38.04
60646;BME280;46462;32.608;-117.032;2022-07-10T02:36:42;99628.68;;;32.43;38.11
60646;BME280;46462;32.608;-117.032;2022-07-10T02:39:12;99627.74;;;32.42;38.23
60646;BME280;46462;32.608;-117.032;2022-07-10T02:41:42;99627.90;;;32.43;38.13
60646;BME280;46462;32.608;-117.032;2022-07-10T02:44:12;99629.05;;;32.41;38.21
60646;BME280;46462;32.608;-117.032;2022-07-10T02:46:42;99627.17;;;32.42;38.19
60646;BME280;46462;32.608;-117.032;2022-07-10T02:49:12;99628.18;;;32.42;38.17
60646;BME280;46462;32.608;-117.032;2022-07-10T02:51:43;99631.44;;;32.41;38.25
60646;BME280;46462;32.608;-117.032;2022-07-10T02:54:13;99630.79;;;32.40;38.21
60646;BME280;46462;32.608;-117.032;2022-07-10T02:56:43;99628.31;;;32.40;38.24
60646;BME280;46462;32.608;-117.032;2022-07-10T02:59:13;99623.25;;;32.40;38.28
60646;BME280;46462;32.608;-117.032;2022-07-10T03:01:43;99621.92;;;32.40;38.24
60646;BME280;46462;32.608;-117.032;2022-07-10T03:04:13;99618.95;;;32.39;38.25
60646;BME280;46462;32.608;-117.032;2022-07-10T03:06:43;99620.68;;;32.37;38.22
60646;BME280;46462;32.608;-117.032;2022-07-10T03:09:13;99619.32;;;32.38;38.19
60646;BME280;46462;32.608;-117.032;2022-07-10T03:11:43;99615.00;;;32.37;38.21
60646;BME280;46462;32.608;-117.032;2022-07-10T03:14:13;99615.73;;;32.34;38.28
60646;BME280;46462;32.608;-117.032;2022-07-10T03:16:44;99618.21;;;32.35;38.25
60646;BME280;46462;32.608;-117.032;2022-07-10T03:19:14;99625.28;;;32.33;38.27
60646;BME280;46462;32.608;-117.032;2022-07-10T03:21:44;99628.47;;;32.34;38.17
60646;BME280;46462;32.608;-117.032;2022-07-10T03:24:14;99630.76;;;32.33;38.12
60646;BME280;46462;32.608;-117.032;2022-07-10T03:26:44;99638.08;;;32.31;38.24
60646;BME280;46462;32.608;-117.032;2022-07-10T03:29:14;99641.36;;;32.31;38.17
60646;BME280;46462;32.608;-117.032;2022-07-10T03:31:44;99640.00;;;32.33;38.08
60646;BME280;46462;32.608;-117.032;2022-07-10T03:34:14;99640.11;;;32.33;38.13
60646;BME280;46462;32.608;-117.032;2022-07-10T03:36:44;99643.16;;;32.34;38.11
60646;BME280;46462;32.608;-117.032;2022-07-10T03:39:14;99647.12;;;32.30;38.21
60646;BME280;46462;32.608;-117.032;2022-07-10T03:41:44;99648.27;;;32.30;38.18
60646;BME280;46462;32.608;-117.032;2022-07-10T03:44:15;99649.99;;;32.28;38.25
60646;BME280;46462;32.608;-117.032;2022-07-10T03:46:45;99654.88;;;32.33;38.17
60646;BME280;46462;32.608;-117.032;2022-07-10T03:49:15;99654.99;;;32.29;38.21
60646;BME280;46462;32.608;-117.032;2022-07-10T03:51:45;99658.11;;;32.30;38.22
60646;BME280;46462;32.608;-117.032;2022-07-10T03:54:15;99658.34;;;32.29;38.27
60646;BME280;46462;32.608;-117.032;2022-07-10T03:56:45;99659.99;;;32.29;38.29
60646;BME280;46462;32.608;-117.032;2022-07-10T03:59:15;99663.95;;;32.28;38.19
60646;BME280;46462;32.608;-117.032;2022-07-10T04:01:45;99664.52;;;32.28;38.30
60646;BME280;46462;32.608;-117.032;2022-07-10T04:04:15;99664.41;;;32.27;38.19
60646;BME280;46462;32.608;-117.032;2022-07-10T04:06:45;99663.52;;;32.24;38.30
60646;BME280;46462;32.608;-117.032;2022-07-10T04:09:15;99663.55;;;32.21;38.46
60646;BME280;46462;32.608;-117.032;2022-07-10T04:11:46;99661.34;;;32.24;38.32
60646;BME280;46462;32.608;-117.032;2022-07-10T04:14:16;99661.58;;;32.22;38.35
60646;BME280;46462;32.608;-117.032;2022-07-10T04:16:46;99663.41;;;32.21;38.43
60646;BME280;46462;32.608;-117.032;2022-07-10T04:19:16;99664.31;;;32.18;38.48
60646;BME280;46462;32.608;-117.032;2022-07-10T04:21:46;99665.23;;;32.16;38.58
60646;BME280;46462;32.608;-117.032;2022-07-10T04:24:16;99666.54;;;32.13;38.70
60646;BME280;46462;32.608;-117.032;2022-07-10T04:26:46;99666.62;;;32.14;38.71
60646;BME280;46462;32.608;-117.032;2022-07-10T04:29:16;99670.21;;;32.12;38.64
60646;BME280;46462;32.608;-117.032;2022-07-10T04:31:46;99678.40;;;32.11;38.64
60646;BME280;46462;32.608;-117.032;2022-07-10T04:34:16;99683.49;;;32.11;38.63
60646;BME280;46462;32.608;-117.032;2022-07-10T04:36:47;99686.17;;;32.10;38.67
60646;BME280;46462;32.608;-117.032;2022-07-10T04:39:17;99692.67;;;32.09;38.67
60646;BME280;46462;32.608;-117.032;2022-07-10T04:41:47;99700.30;;;32.09;38.63
60646;BME280;46462;32.608;-117.032;2022-07-10T04:44:18;99703.02;;;32.07;38.74
60646;BME280;46462;32.608;-117.032;2022-07-10T04:46:47;99706.56;;;32.07;38.67
60646;BME280;46462;32.608;-117.032;2022-07-10T04:49:17;99709.19;;;32.04;38.77
60646;BME280;46462;32.608;-117.032;2022-07-10T04:51:47;99709.25;;;32.01;38.86
60646;BME280;46462;32.608;-117.032;2022-07-10T04:54:18;99707.30;;;32.00;38.88
60646;BME280;46462;32.608;-117.032;2022-07-10T04:56:47;99706.00;;;31.99;38.87
60646;BME280;46462;32.608;-117.032;2022-07-10T04:59:17;99710.79;;;31.99;38.86
60646;BME280;46462;32.608;-117.032;2022-07-10T05:01:47;99715.14;;;31.98;38.97
60646;BME280;46462;32.608;-117.032;2022-07-10T05:04:18;99715.30;;;31.96;38.92
60646;BME280;46462;32.608;-117.032;2022-07-10T05:06:48;99719.32;;;31.96;38.89
60646;BME280;46462;32.608;-117.032;2022-07-10T05:09:18;99718.08;;;31.94;38.94
60646;BME280;46462;32.608;-117.032;2022-07-10T05:11:48;99720.08;;;31.94;38.94
60646;BME280;46462;32.608;-117.032;2022-07-10T05:14:18;99721.46;;;31.90;39.10
60646;BME280;46462;32.608;-117.032;2022-07-10T05:16:48;99722.80;;;31.91;39.12
60646;BME280;46462;32.608;-117.032;2022-07-10T05:19:18;99723.44;;;31.90;39.08
60646;BME280;46462;32.608;-117.032;2022-07-10T05:21:48;99722.24;;;31.89;39.01
60646;BME280;46462;32.608;-117.032;2022-07-10T05:24:18;99722.02;;;31.86;39.15
60646;BME280;46462;32.608;-117.032;2022-07-10T05:26:48;99721.49;;;31.85;39.13
60646;BME280;46462;32.608;-117.032;2022-07-10T05:29:19;99725.34;;;31.81;39.31
60646;BME280;46462;32.608;-117.032;2022-07-10T05:31:49;99722.16;;;31.81;39.31
60646;BME280;46462;32.608;-117.032;2022-07-10T05:34:19;99719.75;;;31.79;39.25
60646;BME280;46462;32.608;-117.032;2022-07-10T05:36:49;99720.96;;;31.79;39.28
60646;BME280;46462;32.608;-117.032;2022-07-10T05:39:19;99719.01;;;31.77;39.27
60646;BME280;46462;32.608;-117.032;2022-07-10T05:41:49;99725.09;;;31.78;39.20
60646;BME280;46462;32.608;-117.032;2022-07-10T05:44:19;99727.19;;;31.77;39.22
60646;BME280;46462;32.608;-117.032;2022-07-10T05:46:49;99725.58;;;31.74;39.26
60646;BME280;46462;32.608;-117.032;2022-07-10T05:49:19;99725.12;;;31.71;39.36
60646;BME280;46462;32.608;-117.032;2022-07-10T05:51:49;99724.12;;;31.72;39.30
60646;BME280;46462;32.608;-117.032;2022-07-10T05:54:20;99721.59;;;31.71;39.26
60646;BME280;46462;32.608;-117.032;2022-07-10T05:56:50;99716.97;;;31.72;39.20
60646;BME280;46462;32.608;-117.032;2022-07-10T05:59:20;99715.43;;;31.70;39.23
60646;BME280;46462;32.608;-117.032;2022-07-10T06:01:50;99716.04;;;31.71;39.24
60646;BME280;46462;32.608;-117.032;2022-07-10T06:04:20;99714.70;;;31.67;39.26
60646;BME280;46462;32.608;-117.032;2022-07-10T06:06:50;99715.14;;;31.64;39.31
60646;BME280;46462;32.608;-117.032;2022-07-10T06:09:20;99719.05;;;31.63;39.33
60646;BME280;46462;32.608;-117.032;2022-07-10T06:11:50;99721.77;;;31.62;39.29
60646;BME280;46462;32.608;-117.032;2022-07-10T06:14:20;99718.82;;;31.62;39.27
60646;BME280;46462;32.608;-117.032;2022-07-10T06:16:51;99718.11;;;31.58;39.36
60646;BME280;46462;32.608;-117.032;2022-07-10T06:19:21;99720.01;;;31.58;39.33
60646;BME280;46462;32.608;-117.032;2022-07-10T06:21:51;99719.81;;;31.57;39.29
60646;BME280;46462;32.608;-117.032;2022-07-10T06:24:21;99718.55;;;31.53;39.40
60646;BME280;46462;32.608;-117.032;2022-07-10T06:26:51;99717.29;;;31.54;39.32
60646;BME280;46462;32.608;-117.032;2022-07-10T06:29:21;99719.70;;;31.51;39.37
60646;BME280;46462;32.608;-117.032;2022-07-10T06:31:51;99719.80;;;31.50;39.38
60646;BME280;46462;32.608;-117.032;2022-07-10T06:34:21;99717.12;;;31.50;39.32
60646;BME280;46462;32.608;-117.032;2022-07-10T06:36:51;99711.34;;;31.48;39.36
60646;BME280;46462;32.608;-117.032;2022-07-10T06:39:21;99712.69;;;31.46;39.36
60646;BME280;46462;32.608;-117.032;2022-07-10T06:41:52;99716.65;;;31.45;39.34
60646;BME280;46462;32.608;-117.032;2022-07-10T06:44:22;99715.80;;;31.43;39.37
60646;BME280;46462;32.608;-117.032;2022-07-10T06:46:52;99712.23;;;31.41;39.36
60646;BME280;46462;32.608;-117.032;2022-07-10T06:49:22;99708.55;;;31.42;39.32
60646;BME280;46462;32.608;-117.032;2022-07-10T06:51:52;99708.65;;;31.41;39.30
60646;BME280;46462;32.608;-117.032;2022-07-10T06:54:22;99708.22;;;31.37;39.36
60646;BME280;46462;32.608;-117.032;2022-07-10T06:56:52;99707.37;;;31.35;39.38
60646;BME280;46462;32.608;-117.032;2022-07-10T06:59:22;99705.89;;;31.36;39.33
60646;BME280;46462;32.608;-117.032;2022-07-10T07:01:53;99705.22;;;31.35;39.30
60646;BME280;46462;32.608;-117.032;2022-07-10T07:04:23;99706.58;;;31.32;39.37
60646;BME280;46462;32.608;-117.032;2022-07-10T07:06:53;99705.50;;;31.32;39.31
60646;BME280;46462;32.608;-117.032;2022-07-10T07:09:23;99700.49;;;31.30;39.33
60646;BME280;46462;32.608;-117.032;2022-07-10T07:11:53;99694.88;;;31.30;39.29
60646;BME280;46462;32.608;-117.032;2022-07-10T07:14:23;99697.81;;;31.28;39.32
60646;BME280;46462;32.608;-117.032;2022-07-10T07:16:53;99698.18;;;31.24;39.37
60646;BME280;46462;32.608;-117.032;2022-07-10T07:19:23;99694.96;;;31.25;39.30
60646;BME280;46462;32.608;-117.032;2022-07-10T07:21:53;99695.45;;;31.23;39.32
60646;BME280;46462;32.608;-117.032;2022-07-10T07:24:23;99694.68;;;31.19;39.35
60646;BME280;46462;32.608;-117.032;2022-07-10T07:26:54;99692.03;;;31.19;39.30
60646;BME280;46462;32.608;-117.032;2022-07-10T07:29:24;99690.23;;;31.18;39.32
60646;BME280;46462;32.608;-117.032;2022-07-10T07:31:54;99689.09;;;31.16;39.35
60646;BME280;46462;32.608;-117.032;2022-07-10T07:34:24;99689.07;;;31.16;39.33
60646;BME280;46462;32.608;-117.032;2022-07-10T07:36:54;99686.34;;;31.15;39.31
60646;BME280;46462;32.608;-117.032;2022-07-10T07:39:24;99679.48;;;31.14;39.27
60646;BME280;46462;32.608;-117.032;2022-07-10T07:41:54;99673.79;;;31.14;39.24
60646;BME280;46462;32.608;-117.032;2022-07-10T07:44:24;99669.05;;;31.12;39.24
60646;BME280;46462;32.608;-117.032;2022-07-10T07:46:54;99666.60;;;31.10;39.25
60646;BME280;46462;32.608;-117.032;2022-07-10T07:49:24;99667.01;;;31.06;39.29
60646;BME280;46462;32.608;-117.032;2022-07-10T07:51:54;99669.94;;;31.06;39.30
60646;BME280;46462;32.608;-117.032;2022-07-10T07:54:25;99671.31;;;31.06;39.25
60646;BME280;46462;32.608;-117.032;2022-07-10T07:56:55;99670.93;;;31.09;39.13
60646;BME280;46462;32.608;-117.032;2022-07-10T07:59:25;99663.48;;;31.06;39.24
60646;BME280;46462;32.608;-117.032;2022-07-10T08:01:55;99660.26;;;31.04;39.18
60646;BME280;46462;32.608;-117.032;2022-07-10T08:04:25;99658.54;;;31.06;39.12
60646;BME280;46462;32.608;-117.032;2022-07-10T08:06:55;99657.32;;;30.96;39.28
60646;BME280;46462;32.608;-117.032;2022-07-10T08:09:25;99658.03;;;30.99;39.18
60646;BME280;46462;32.608;-117.032;2022-07-10T08:11:55;99655.29;;;31.01;39.09
60646;BME280;46462;32.608;-117.032;2022-07-10T08:14:25;99652.89;;;30.95;39.14
60646;BME280;46462;32.608;-117.032;2022-07-10T08:16:55;99654.55;;;30.97;39.11
60646;BME280;46462;32.608;-117.032;2022-07-10T08:19:26;99654.13;;;30.93;39.21
60646;BME280;46462;32.608;-117.032;2022-07-10T08:21:56;99654.44;;;30.93;39.15
60646;BME280;46462;32.608;-117.032;2022-07-10T08:24:26;99658.08;;;30.91;39.14
60646;BME280;46462;32.608;-117.032;2022-07-10T08:26:56;99657.55;;;30.88;39.16
60646;BME280;46462;32.608;-117.032;2022-07-10T08:29:26;99652.33;;;30.85;39.11
60646;BME280;46462;32.608;-117.032;2022-07-10T08:31:56;99653.91;;;30.78;39.30
60646;BME280;46462;32.608;-117.032;2022-07-10T08:34:27;99659.77;;;30.79;39.23
60646;BME280;46462;32.608;-117.032;2022-07-10T08:36:56;99659.42;;;30.72;39.31
60646;BME280;46462;32.608;-117.032;2022-07-10T08:39:27;99653.03;;;30.70;39.35
60646;BME280;46462;32.608;-117.032;2022-07-10T08:41:57;99652.44;;;30.72;39.23
60646;BME280;46462;32.608;-117.032;2022-07-10T08:44:28;99648.94;;;30.68;39.28
60646;BME280;46462;32.608;-117.032;2022-07-10T08:46:57;99644.88;;;30.63;39.32
60646;BME280;46462;32.608;-117.032;2022-07-10T08:49:28;99645.44;;;30.65;39.28
60646;BME280;46462;32.608;-117.032;2022-07-10T08:52:01;99649.85;;;30.67;39.18
60646;BME280;46462;32.608;-117.032;2022-07-10T08:54:29;99652.46;;;30.56;39.31
60646;BME280;46462;32.608;-117.032;2022-07-10T08:56:58;99649.27;;;30.62;39.25
60646;BME280;46462;32.608;-117.032;2022-07-10T08:59:28;99647.20;;;30.59;39.21
60646;BME280;46462;32.608;-117.032;2022-07-10T09:01:58;99647.18;;;30.61;39.20
60646;BME280;46462;32.608;-117.032;2022-07-10T09:04:28;99643.26;;;30.62;39.09
60646;BME280;46462;32.608;-117.032;2022-07-10T09:06:58;99639.70;;;30.62;39.13
60646;BME280;46462;32.608;-117.032;2022-07-10T09:09:28;99641.90;;;30.48;39.38
60646;BME280;46462;32.608;-117.032;2022-07-10T09:11:59;99642.13;;;30.53;39.20
60646;BME280;46462;32.608;-117.032;2022-07-10T09:14:28;99637.96;;;30.51;39.22
60646;BME280;46462;32.608;-117.032;2022-07-10T09:16:58;99629.08;;;30.51;39.13
60646;BME280;46462;32.608;-117.032;2022-07-10T09:19:29;99626.41;;;30.49;39.18
60646;BME280;46462;32.608;-117.032;2022-07-10T09:22:05;99626.85;;;30.50;39.10
60646;BME280;46462;32.608;-117.032;2022-07-10T09:24:35;99628.61;;;30.49;39.05
60646;BME280;46462;32.608;-117.032;2022-07-10T09:27:00;99630.27;;;30.44;39.12
60646;BME280;46462;32.608;-117.032;2022-07-10T09:29:29;99628.13;;;30.42;39.13
60646;BME280;46462;32.608;-117.032;2022-07-10T09:32:00;99625.91;;;30.47;39.02
60646;BME280;46462;32.608;-117.032;2022-07-10T09:34:37;99628.50;;;30.40;39.06
60646;BME280;46462;32.608;-117.032;2022-07-10T09:36:59;99627.31;;;30.41;39.04
60646;BME280;46462;32.608;-117.032;2022-07-10T09:39:29;99626.62;;;30.36;39.10
60646;BME280;46462;32.608;-117.032;2022-07-10T09:41:59;99623.79;;;30.40;38.98
60646;BME280;46462;32.608;-117.032;2022-07-10T09:44:29;99623.34;;;30.38;39.02
60646;BME280;46462;32.608;-117.032;2022-07-10T09:46:59;99620.07;;;30.38;38.95
60646;BME280;46462;32.608;-117.032;2022-07-10T09:49:31;99617.62;;;30.39;38.88
60646;BME280;46462;32.608;-117.032;2022-07-10T09:52:00;99616.34;;;30.37;38.87
60646;BME280;46462;32.608;-117.032;2022-07-10T09:54:30;99609.32;;;30.36;38.91
60646;BME280;46462;32.608;-117.032;2022-07-10T09:57:03;99608.23;;;30.31;38.99
60646;BME280;46462;32.608;-117.032;2022-07-10T09:59:32;99605.94;;;30.30;38.96
60646;BME280;46462;32.608;-117.032;2022-07-10T10:02:01;99600.75;;;30.26;39.02
60646;BME280;46462;32.608;-117.032;2022-07-10T10:04:31;99602.70;;;30.33;38.69
60646;BME280;46462;32.608;-117.032;2022-07-10T10:07:02;99603.18;;;30.34;38.73
60646;BME280;46462;32.608;-117.032;2022-07-10T10:09:38;99604.12;;;30.31;38.72
60646;BME280;46462;32.608;-117.032;2022-07-10T10:12:04;99604.37;;;30.30;38.75
60646;BME280;46462;32.608;-117.032;2022-07-10T10:14:32;99606.67;;;30.29;38.73
60646;BME280;46462;32.608;-117.032;2022-07-10T10:17:01;99609.42;;;30.33;38.57
60646;BME280;46462;32.608;-117.032;2022-07-10T10:19:32;99604.42;;;30.22;38.79
60646;BME280;46462;32.608;-117.032;2022-07-10T10:22:02;99602.68;;;30.21;38.80
60646;BME280;46462;32.608;-117.032;2022-07-10T10:24:32;99601.52;;;30.22;38.69
60646;BME280;46462;32.608;-117.032;2022-07-10T10:27:02;99603.79;;;30.27;38.56
60646;BME280;46462;32.608;-117.032;2022-07-10T10:29:32;99602.14;;;30.20;38.74
60646;BME280;46462;32.608;-117.032;2022-07-10T10:32:02;99603.81;;;30.19;38.70
60646;BME280;46462;32.608;-117.032;2022-07-10T10:34:40;99602.74;;;30.16;38.76
60646;BME280;46462;32.608;-117.032;2022-07-10T10:37:02;99600.61;;;30.13;38.78
60646;BME280;46462;32.608;-117.032;2022-07-10T10:42:02;99600.06;;;30.06;38.93
60646;BME280;46462;32.608;-117.032;2022-07-10T10:44:32;99597.79;;;30.09;38.71
60646;BME280;46462;32.608;-117.032;2022-07-10T10:47:05;99600.39;;;30.12;38.75
60646;BME280;46462;32.608;-117.032;2022-07-10T10:52:04;99598.93;;;30.15;38.55
60646;BME280;46462;32.608;-117.032;2022-07-10T11:04:33;99594.84;;;29.96;38.84
60646;BME280;46462;32.608;-117.032;2022-07-10T11:07:03;99598.79;;;30.05;38.56
60646;BME280;46462;32.608;-117.032;2022-07-10T11:09:34;99596.86;;;30.02;38.59
60646;BME280;46462;32.608;-117.032;2022-07-10T11:12:05;99599.09;;;30.03;38.56
60646;BME280;46462;32.608;-117.032;2022-07-10T11:14:35;99602.36;;;29.94;38.73
60646;BME280;46462;32.608;-117.032;2022-07-10T11:17:04;99600.70;;;30.00;38.56
60646;BME280;46462;32.608;-117.032;2022-07-10T11:19:34;99598.62;;;30.00;38.51
60646;BME280;46462;32.608;-117.032;2022-07-10T11:22:16;99601.17;;;30.01;38.42
60646;BME280;46462;32.608;-117.032;2022-07-10T11:24:44;99599.70;;;29.98;38.50
60646;BME280;46462;32.608;-117.032;2022-07-10T11:27:20;99600.95;;;29.99;38.44
60646;BME280;46462;32.608;-117.032;2022-07-10T11:29:37;99607.34;;;29.96;38.47
60646;BME280;46462;32.608;-117.032;2022-07-10T11:32:05;99606.86;;;30.02;38.31
60646;BME280;46462;32.608;-117.032;2022-07-10T11:34:36;99602.82;;;29.99;38.37
60646;BME280;46462;32.608;-117.032;2022-07-10T11:37:13;99605.29;;;29.94;38.41
60646;BME280;46462;32.608;-117.032;2022-07-10T11:39:35;99609.64;;;29.94;38.40
60646;BME280;46462;32.608;-117.032;2022-07-10T11:42:05;99612.03;;;29.97;38.27
60646;BME280;46462;32.608;-117.032;2022-07-10T11:44:35;99614.67;;;29.98;38.27
60646;BME280;46462;32.608;-117.032;2022-07-10T11:47:05;99620.36;;;29.90;38.34
60646;BME280;46462;32.608;-117.032;2022-07-10T11:49:44;99623.73;;;29.91;38.29
60646;BME280;46462;32.608;-117.032;2022-07-10T11:52:06;99626.81;;;29.88;38.37
60646;BME280;46462;32.608;-117.032;2022-07-10T11:54:35;99633.36;;;29.84;38.47
60646;BME280;46462;32.608;-117.032;2022-07-10T11:57:06;99632.95;;;29.81;38.51
60646;BME280;46462;32.608;-117.032;2022-07-10T11:59:36;99639.03;;;29.79;38.48
60646;BME280;46462;32.608;-117.032;2022-07-10T12:02:06;99639.52;;;29.86;38.29
60646;BME280;46462;32.608;-117.032;2022-07-10T12:04:36;99639.19;;;29.94;38.08
60646;BME280;46462;32.608;-117.032;2022-07-10T12:07:06;99640.57;;;29.94;38.06
60646;BME280;46462;32.608;-117.032;2022-07-10T12:09:36;99638.86;;;29.92;38.07
60646;BME280;46462;32.608;-117.032;2022-07-10T12:12:07;99637.14;;;29.93;38.00
60646;BME280;46462;32.608;-117.032;2022-07-10T12:14:36;99642.00;;;29.91;38.00
60646;BME280;46462;32.608;-117.032;2022-07-10T12:17:11;99639.17;;;29.89;38.00
60646;BME280;46462;32.608;-117.032;2022-07-10T12:19:38;99641.75;;;29.82;38.14
60646;BME280;46462;32.608;-117.032;2022-07-10T12:22:08;99649.34;;;29.87;38.07
60646;BME280;46462;32.608;-117.032;2022-07-10T12:24:37;99647.26;;;29.82;38.13
60646;BME280;46462;32.608;-117.032;2022-07-10T12:27:07;99648.48;;;29.74;38.29
60646;BME280;46462;32.608;-117.032;2022-07-10T12:29:37;99646.63;;;29.79;38.20
60646;BME280;46462;32.608;-117.032;2022-07-10T12:32:08;99645.95;;;29.81;38.12
60646;BME280;46462;32.608;-117.032;2022-07-10T12:34:38;99648.14;;;29.82;38.00
60646;BME280;46462;32.608;-117.032;2022-07-10T12:37:08;99649.65;;;29.83;37.93
60646;BME280;46462;32.608;-117.032;2022-07-10T12:39:45;99650.29;;;29.78;38.07
60646;BME280;46462;32.608;-117.032;2022-07-10T12:42:08;99654.98;;;29.75;38.07
60646;BME280;46462;32.608;-117.032;2022-07-10T12:44:39;99658.52;;;29.74;38.07
60646;BME280;46462;32.608;-117.032;2022-07-10T12:47:10;99656.42;;;29.73;38.06
60646;BME280;46462;32.608;-117.032;2022-07-10T12:54:38;99670.23;;;29.72;38.05
60646;BME280;46462;32.608;-117.032;2022-07-10T12:57:08;99669.05;;;29.71;38.07
60646;BME280;46462;32.608;-117.032;2022-07-10T12:59:39;99671.64;;;29.65;38.24
60646;BME280;46462;32.608;-117.032;2022-07-10T13:02:15;99675.40;;;29.71;37.97
60646;BME280;46462;32.608;-117.032;2022-07-10T13:04:39;99672.83;;;29.65;38.07